createdAt,value
2023-05-10T00:00:30.393Z,14.30
2023-05-10T00:03:02.774Z,14.33
2023-05-10T00:05:35.089Z,14.38
2023-05-10T00:08:07.769Z,14.34
2023-05-10T00:10:39.889Z,14.33
2023-05-10T00:13:10.377Z,14.38
2023-05-10T00:15:42.122Z,14.34
2023-05-10T00:18:14.835Z,14.36
2023-05-10T00:20:48.346Z,14.31
2023-05-10T00:23:20.839Z,14.26
2023-05-10T00:25:52.000Z,14.24
2023-05-10T00:28:23.581Z,14.21
2023-05-10T00:30:55.567Z,14.12
2023-05-10T00:33:26.817Z,14.10
2023-05-10T00:35:58.579Z,14.13
2023-05-10T00:38:30.132Z,14.10
2023-05-10T00:41:02.065Z,14.10
2023-05-10T00:43:35.494Z,14.09
2023-05-10T00:46:09.797Z,13.98
2023-05-10T00:48:44.257Z,13.96
2023-05-10T00:51:16.943Z,13.98
2023-05-10T00:53:49.433Z,14.00
2023-05-10T00:56:22.601Z,14.02
2023-05-10T00:58:54.478Z,14.02
2023-05-10T01:01:26.047Z,14.03
2023-05-10T01:03:59.389Z,14.09
2023-05-10T01:06:30.179Z,13.98
2023-05-10T01:09:02.130Z,14.00
2023-05-10T01:11:32.825Z,14.06
2023-05-10T01:14:03.112Z,14.08
2023-05-10T01:16:39.336Z,14.10
2023-05-10T01:19:27.321Z,14.13
2023-05-10T01:22:18.934Z,14.10
2023-05-10T01:25:33.845Z,14.12
2023-05-10T01:28:10.012Z,14.09
2023-05-10T01:31:05.193Z,14.09
2023-05-10T01:34:07.031Z,14.09
2023-05-10T01:36:45.247Z,14.10
2023-05-10T01:39:24.009Z,14.06
2023-05-10T01:42:02.766Z,13.98
2023-05-10T01:44:38.861Z,13.96
2023-05-10T01:47:18.494Z,13.85
2023-05-10T01:49:55.794Z,13.82
2023-05-10T01:52:31.589Z,13.78
2023-05-10T01:55:14.644Z,13.76
2023-05-10T01:57:47.118Z,13.75
2023-05-10T02:00:18.953Z,13.78
2023-05-10T02:02:52.059Z,13.73
2023-05-10T02:05:24.680Z,13.69
2023-05-10T02:07:57.547Z,13.66
2023-05-10T02:10:29.325Z,13.65
2023-05-10T02:13:03.224Z,13.68
2023-05-10T02:15:36.501Z,13.63
2023-05-10T02:18:08.742Z,13.52
2023-05-10T02:20:40.596Z,13.50
2023-05-10T02:23:13.246Z,13.51
2023-05-10T02:25:46.793Z,13.51
2023-05-10T02:28:18.206Z,13.47
2023-05-10T02:30:50.088Z,13.48
2023-05-10T02:33:22.178Z,13.54
2023-05-10T02:35:54.750Z,13.55
2023-05-10T02:38:26.805Z,13.47
2023-05-10T02:40:58.812Z,13.38
2023-05-10T02:43:33.058Z,13.37
2023-05-10T02:46:06.767Z,13.45
2023-05-10T02:48:38.754Z,13.47
2023-05-10T02:51:10.963Z,13.47
2023-05-10T02:53:45.617Z,13.50
2023-05-10T02:56:28.052Z,13.54
2023-05-10T02:58:58.653Z,13.61
2023-05-10T03:01:28.596Z,13.66
2023-05-10T03:03:59.690Z,13.72
2023-05-10T03:06:30.833Z,13.73
2023-05-10T03:09:01.836Z,13.76
2023-05-10T03:11:40.559Z,13.71
2023-05-10T03:14:36.775Z,13.68
2023-05-10T03:17:41.986Z,13.71
2023-05-10T03:20:17.344Z,13.65
2023-05-10T03:22:56.216Z,13.57
2023-05-10T03:25:29.317Z,13.51
2023-05-10T03:28:00.525Z,13.44
2023-05-10T03:30:31.796Z,13.38
2023-05-10T03:33:08.597Z,13.31
2023-05-10T03:35:43.804Z,13.30
2023-05-10T03:38:15.224Z,13.25
2023-05-10T03:40:45.600Z,13.15
2023-05-10T03:43:15.469Z,13.14
2023-05-10T03:45:45.837Z,13.08
2023-05-10T03:48:16.177Z,13.06
2023-05-10T03:50:47.670Z,13.01
2023-05-10T03:53:18.122Z,12.97
2023-05-10T03:55:48.686Z,13.00
2023-05-10T03:58:19.055Z,12.99
2023-05-10T04:00:50.483Z,13.00
2023-05-10T04:03:20.473Z,12.97
2023-05-10T04:05:50.859Z,13.01
2023-05-10T04:08:22.552Z,13.03
2023-05-10T04:10:53.083Z,12.96
2023-05-10T04:13:23.595Z,12.86
2023-05-10T04:15:53.442Z,12.80
2023-05-10T04:18:24.968Z,12.75
2023-05-10T04:20:55.587Z,12.69
2023-05-10T04:23:25.410Z,12.70
2023-05-10T04:26:02.384Z,12.69
2023-05-10T04:28:33.163Z,12.75
2023-05-10T04:31:08.299Z,12.66
2023-05-10T04:33:39.229Z,12.69
2023-05-10T04:36:09.575Z,12.67
2023-05-10T04:38:40.514Z,12.73
2023-05-10T04:41:12.248Z,12.70
2023-05-10T04:43:42.433Z,12.69
2023-05-10T04:46:11.790Z,12.66
2023-05-10T04:48:41.966Z,12.63
2023-05-10T04:51:11.651Z,12.62
2023-05-10T04:53:46.455Z,12.59
2023-05-10T04:56:21.535Z,12.56
2023-05-10T04:58:51.755Z,12.48
2023-05-10T05:01:22.605Z,12.57
2023-05-10T05:03:55.413Z,12.59
2023-05-10T05:06:27.238Z,12.60
2023-05-10T05:08:57.536Z,12.59
2023-05-10T05:11:28.122Z,12.57
2023-05-10T05:14:01.095Z,12.59
2023-05-10T05:16:34.232Z,12.50
2023-05-10T05:19:11.556Z,12.50
2023-05-10T05:21:43.285Z,12.49
2023-05-10T05:24:15.164Z,12.38
2023-05-10T05:26:45.286Z,12.41
2023-05-10T05:29:14.671Z,12.35
2023-05-10T05:31:46.130Z,12.28
2023-05-10T05:34:17.578Z,12.24
2023-05-10T05:36:48.137Z,12.26
2023-05-10T05:39:17.997Z,12.22
2023-05-10T05:41:48.786Z,12.20
2023-05-10T05:44:18.710Z,12.17
2023-05-10T05:46:48.793Z,12.08
2023-05-10T05:49:18.636Z,12.04
2023-05-10T05:51:51.136Z,12.06
2023-05-10T05:54:21.055Z,11.97
2023-05-10T05:56:51.448Z,11.94
2023-05-10T05:59:24.227Z,11.91
2023-05-10T06:01:54.740Z,11.98
2023-05-10T06:04:24.917Z,11.99
2023-05-10T06:06:55.249Z,12.01
2023-05-10T06:09:26.669Z,12.05
2023-05-10T06:11:57.255Z,12.02
2023-05-10T06:14:27.059Z,12.04
2023-05-10T06:16:57.279Z,12.06
2023-05-10T06:19:28.455Z,12.15
2023-05-10T06:21:59.204Z,12.11
2023-05-10T06:24:29.649Z,12.14
2023-05-10T06:27:02.254Z,12.08
2023-05-10T06:29:32.260Z,12.10
2023-05-10T06:32:02.286Z,12.02
2023-05-10T06:34:33.718Z,11.98
2023-05-10T06:37:05.659Z,11.88
2023-05-10T06:39:35.806Z,11.98
2023-05-10T06:42:06.751Z,12.04
2023-05-10T06:44:37.109Z,12.04
2023-05-10T06:47:06.860Z,11.87
2023-05-10T06:49:36.793Z,11.81
2023-05-10T06:52:06.626Z,11.78
2023-05-10T06:54:37.108Z,11.83
2023-05-10T06:57:16.081Z,11.77
2023-05-10T06:59:54.390Z,11.81
2023-05-10T07:02:24.886Z,11.78
2023-05-10T07:04:56.255Z,11.74
2023-05-10T07:07:27.512Z,11.73
2023-05-10T07:09:59.605Z,11.62
2023-05-10T07:12:30.795Z,11.67
2023-05-10T07:15:01.567Z,11.64
2023-05-10T07:17:32.089Z,11.59
2023-05-10T07:20:02.640Z,11.60
2023-05-10T07:22:32.531Z,11.52
2023-05-10T07:25:04.439Z,11.54
2023-05-10T07:27:37.120Z,11.54
2023-05-10T07:30:07.562Z,11.54
2023-05-10T07:32:37.583Z,11.50
2023-05-10T07:35:08.920Z,11.49
2023-05-10T07:37:40.033Z,11.47
2023-05-10T07:40:10.879Z,11.47
2023-05-10T07:42:40.895Z,11.46
2023-05-10T07:45:12.639Z,11.47
2023-05-10T07:47:43.018Z,11.46
2023-05-10T07:50:12.961Z,11.53
2023-05-10T07:52:43.384Z,11.54
2023-05-10T07:55:13.995Z,11.60
2023-05-10T07:57:45.074Z,11.59
2023-05-10T08:00:19.262Z,11.59
2023-05-10T08:02:50.230Z,11.47
2023-05-10T08:05:21.238Z,11.46
2023-05-10T08:07:53.341Z,11.42
2023-05-10T08:10:23.709Z,11.46
2023-05-10T08:12:53.466Z,11.46
2023-05-10T08:15:24.213Z,11.46
2023-05-10T08:17:58.760Z,11.44
2023-05-10T08:20:30.091Z,11.36
2023-05-10T08:23:00.207Z,11.37
2023-05-10T08:25:29.989Z,11.30
2023-05-10T08:28:00.261Z,11.30
2023-05-10T08:30:30.442Z,11.32
2023-05-10T08:33:00.746Z,11.32
2023-05-10T08:35:30.755Z,11.29
2023-05-10T08:38:00.850Z,11.30
2023-05-10T08:40:30.285Z,11.32
2023-05-10T08:43:11.693Z,11.32
2023-05-10T08:45:47.500Z,11.33
2023-05-10T08:48:20.022Z,11.29
2023-05-10T08:50:51.154Z,11.37
2023-05-10T08:53:23.191Z,11.37
2023-05-10T08:55:54.491Z,11.53
2023-05-10T08:58:24.890Z,11.59
2023-05-10T09:00:55.722Z,11.73
2023-05-10T09:03:25.794Z,11.97
2023-05-10T09:05:57.995Z,11.93
2023-05-10T09:08:29.085Z,11.95
2023-05-10T09:10:59.506Z,12.04
2023-05-10T09:13:30.238Z,12.13
2023-05-10T09:16:07.105Z,12.21
2023-05-10T09:18:44.226Z,12.24
2023-05-10T09:21:14.856Z,12.22
2023-05-10T09:23:49.057Z,12.21
2023-05-10T09:26:22.816Z,12.31
2023-05-10T09:28:57.573Z,12.24
2023-05-10T09:31:45.228Z,12.25
2023-05-10T09:34:20.138Z,12.21
2023-05-10T09:36:55.027Z,12.10
2023-05-10T09:39:36.474Z,12.04
2023-05-10T09:42:09.417Z,11.98
2023-05-10T09:44:42.383Z,11.94
2023-05-10T09:47:12.799Z,11.81
2023-05-10T09:49:44.518Z,11.70
2023-05-10T09:52:14.762Z,11.57
2023-05-10T09:54:55.797Z,11.47
2023-05-10T09:57:28.310Z,11.42
2023-05-10T09:59:59.658Z,11.39
2023-05-10T10:02:32.706Z,11.37
2023-05-10T10:05:06.151Z,11.36
2023-05-10T10:07:39.735Z,11.26
2023-05-10T10:10:14.462Z,11.35
2023-05-10T10:12:46.630Z,11.40
2023-05-10T10:15:17.199Z,11.50
2023-05-10T10:17:50.265Z,11.62
2023-05-10T10:20:22.326Z,11.84
2023-05-10T10:22:52.626Z,12.02
2023-05-10T10:25:24.316Z,12.06
2023-05-10T10:27:55.287Z,12.11
2023-05-10T10:30:29.041Z,12.06
2023-05-10T10:33:28.312Z,12.02
2023-05-10T10:36:03.312Z,12.10
2023-05-10T10:38:52.223Z,12.24
2023-05-10T10:41:38.514Z,12.35
2023-05-10T10:44:31.508Z,12.46
2023-05-10T10:47:11.422Z,12.50
2023-05-10T10:49:42.156Z,12.60
2023-05-10T10:52:35.821Z,12.79
2023-05-10T10:55:16.701Z,13.06
2023-05-10T10:57:49.241Z,13.03
2023-05-10T11:00:32.861Z,13.08
2023-05-10T11:03:02.996Z,13.08
2023-05-10T11:05:45.748Z,13.30
2023-05-10T11:08:32.847Z,13.38
2023-05-10T11:11:03.308Z,13.55
2023-05-10T11:13:37.975Z,13.79
2023-05-10T11:16:15.846Z,13.93
2023-05-10T11:18:56.271Z,14.12
2023-05-10T11:21:28.191Z,14.36
2023-05-10T11:24:00.005Z,14.82
2023-05-10T11:26:39.374Z,14.63
2023-05-10T11:29:10.238Z,14.44
2023-05-10T11:31:47.502Z,14.60
2023-05-10T11:34:40.804Z,15.15
2023-05-10T11:37:10.959Z,15.26
2023-05-10T11:39:42.711Z,15.22
2023-05-10T11:42:15.666Z,15.80
2023-05-10T11:44:50.329Z,19.68
2023-05-10T11:47:20.570Z,21.41
2023-05-10T11:49:50.965Z,22.18
2023-05-10T11:52:23.254Z,23.01
2023-05-10T11:54:56.967Z,23.97
2023-05-10T11:57:30.751Z,21.38
2023-05-10T12:00:01.489Z,19.24
2023-05-10T12:02:32.697Z,19.50
2023-05-10T12:05:05.915Z,22.04
2023-05-10T12:07:35.946Z,22.50
2023-05-10T12:10:20.265Z,23.08
2023-05-10T12:12:51.535Z,21.48
2023-05-10T12:15:26.707Z,22.24
2023-05-10T12:17:56.926Z,17.86
2023-05-10T12:20:30.778Z,16.84
2023-05-10T12:23:05.392Z,16.79
2023-05-10T12:25:37.504Z,17.30
2023-05-10T12:28:10.234Z,17.49
2023-05-10T12:30:42.023Z,17.44
2023-05-10T12:33:18.820Z,19.34
2023-05-10T12:35:52.563Z,19.70
2023-05-10T12:38:40.030Z,17.61
2023-05-10T12:41:18.043Z,17.34
2023-05-10T12:43:50.417Z,19.47
2023-05-10T12:46:21.224Z,19.89
2023-05-10T12:49:07.891Z,19.81
2023-05-10T12:51:39.267Z,18.79
2023-05-10T12:54:10.157Z,18.61
2023-05-10T12:56:42.956Z,17.92
2023-05-10T12:59:12.936Z,17.08
2023-05-10T13:01:43.151Z,16.79
2023-05-10T13:04:13.770Z,16.79
2023-05-10T13:06:44.370Z,16.77
2023-05-10T13:09:14.726Z,16.74
2023-05-10T13:11:44.759Z,16.86
2023-05-10T13:14:17.018Z,16.94
2023-05-10T13:16:47.636Z,17.00
2023-05-10T13:19:20.257Z,16.91
2023-05-10T13:21:51.652Z,17.17
2023-05-10T13:24:24.454Z,17.18
2023-05-10T13:26:55.005Z,17.17
2023-05-10T13:29:25.519Z,17.00
2023-05-10T13:31:55.345Z,17.06
2023-05-10T13:34:26.469Z,17.18
2023-05-10T13:36:58.274Z,17.04
2023-05-10T13:39:36.400Z,17.17
2023-05-10T13:42:08.999Z,17.25
2023-05-10T13:44:41.119Z,17.27
2023-05-10T13:47:12.449Z,17.34
2023-05-10T13:49:43.087Z,17.58
2023-05-10T13:52:13.472Z,17.69
2023-05-10T13:58:44.067Z,17.59
2023-05-10T14:09:06.247Z,18.91
2023-05-10T14:25:19.664Z,21.07
2023-05-10T14:33:37.500Z,21.01
2023-05-10T15:02:18.984Z,21.86
2023-05-10T15:04:51.170Z,22.06
2023-05-10T15:07:21.749Z,22.73
2023-05-10T15:09:53.643Z,23.29
2023-05-10T15:12:23.796Z,22.73
2023-05-10T15:14:54.049Z,22.75
2023-05-10T15:17:25.443Z,23.42
2023-05-10T15:19:55.389Z,23.70
2023-05-10T15:22:25.261Z,23.15
2023-05-10T15:24:55.637Z,22.37
2023-05-10T15:27:26.428Z,22.20
2023-05-10T15:29:58.342Z,22.33
2023-05-10T15:32:31.352Z,21.54
2023-05-10T15:35:02.190Z,21.45
2023-05-10T15:37:32.416Z,21.48
2023-05-10T15:40:06.001Z,21.25
2023-05-10T15:42:36.056Z,21.37
2023-05-10T15:45:06.274Z,21.55
2023-05-10T15:47:37.217Z,21.75
2023-05-10T15:50:10.531Z,22.84
2023-05-10T15:52:40.647Z,23.70
2023-05-10T15:55:14.225Z,23.88
2023-05-10T15:57:45.895Z,24.18
2023-05-10T16:00:17.873Z,23.87
2023-05-10T16:02:47.863Z,23.39
2023-05-10T16:05:18.743Z,23.61
2023-05-10T16:07:50.501Z,23.98
2023-05-10T16:10:20.904Z,24.30
2023-05-10T16:12:51.216Z,24.56
2023-05-10T16:15:22.838Z,24.72
2023-05-10T16:17:54.420Z,25.10
2023-05-10T16:20:25.877Z,24.49
2023-05-10T16:22:56.048Z,24.29
2023-05-10T16:25:26.248Z,24.22
2023-05-10T16:27:56.612Z,24.86
2023-05-10T16:30:28.497Z,24.86
2023-05-10T16:33:01.570Z,25.23
2023-05-10T16:35:32.157Z,24.91
2023-05-10T16:38:02.806Z,25.24
2023-05-10T16:40:33.215Z,24.69
2023-05-10T16:43:04.731Z,24.30
2023-05-10T16:45:35.071Z,25.18
2023-05-10T16:48:05.022Z,26.37
2023-05-10T16:50:36.232Z,26.04
2023-05-10T16:53:07.396Z,25.68
2023-05-10T16:55:38.273Z,26.60
2023-05-10T16:58:08.951Z,25.97
2023-05-10T17:00:39.075Z,26.62
2023-05-10T17:03:09.770Z,25.96
2023-05-10T17:05:42.539Z,26.91
2023-05-10T17:08:12.966Z,27.46
2023-05-10T17:10:42.761Z,26.45
2023-05-10T17:13:12.746Z,27.76
2023-05-10T17:15:43.034Z,27.09
2023-05-10T17:18:14.460Z,27.42
2023-05-10T17:20:46.492Z,28.66
2023-05-10T17:23:17.568Z,29.66
2023-05-10T17:25:47.448Z,28.69
2023-05-10T17:28:18.298Z,28.63
2023-05-10T17:30:48.625Z,28.56
2023-05-10T17:33:18.382Z,29.25
2023-05-10T17:35:50.894Z,29.96
2023-05-10T17:38:21.251Z,30.84
2023-05-10T17:40:54.475Z,30.20
2023-05-10T17:43:24.989Z,27.91
2023-05-10T17:45:55.101Z,24.35
2023-05-10T17:48:25.728Z,28.38
2023-05-10T17:50:57.522Z,30.65
2023-05-10T17:53:27.392Z,31.23
2023-05-10T17:56:00.151Z,32.37
2023-05-10T17:58:30.595Z,28.69
2023-05-10T18:01:01.094Z,25.04
2023-05-10T18:03:32.169Z,28.90
2023-05-10T18:06:02.369Z,27.76
2023-05-10T18:08:34.165Z,28.65
2023-05-10T18:11:05.172Z,29.18
2023-05-10T18:13:36.008Z,26.39
2023-05-10T18:16:07.193Z,27.73
2023-05-10T18:18:38.821Z,28.00
2023-05-10T18:21:09.965Z,23.19
2023-05-10T18:23:40.603Z,21.79
2023-05-10T18:26:14.113Z,26.13
2023-05-10T18:28:44.723Z,24.59
2023-05-10T18:31:14.598Z,26.55
2023-05-10T18:33:45.599Z,22.75
2023-05-10T18:36:16.673Z,27.57
2023-05-10T18:38:48.191Z,28.55
2023-05-10T18:41:18.177Z,24.30
2023-05-10T18:43:48.067Z,26.17
2023-05-10T18:46:18.651Z,26.98
2023-05-10T18:48:49.579Z,27.67
2023-05-10T18:51:20.776Z,26.10
2023-05-10T18:53:50.779Z,26.55
2023-05-10T18:56:23.511Z,26.26
2023-05-10T18:58:53.945Z,26.14
2023-05-10T19:01:29.658Z,26.58
2023-05-10T19:04:00.043Z,23.87
2023-05-10T19:06:30.645Z,22.47
2023-05-10T19:09:01.820Z,21.85
2023-05-10T19:11:35.179Z,21.49
2023-05-10T19:14:07.346Z,21.01
2023-05-10T19:16:37.945Z,20.80
2023-05-10T19:19:10.320Z,20.63
2023-05-10T19:21:41.914Z,20.53
2023-05-10T19:24:14.548Z,20.53
2023-05-10T19:26:46.919Z,20.47
2023-05-10T19:29:18.264Z,20.38
2023-05-10T19:31:49.977Z,20.25
2023-05-10T19:34:20.317Z,20.21
2023-05-10T19:36:50.051Z,20.16
2023-05-10T19:39:20.785Z,20.05
2023-05-10T19:41:51.566Z,19.99
2023-05-10T19:44:25.503Z,20.05
2023-05-10T19:46:56.204Z,19.77
2023-05-10T19:49:27.810Z,19.71
2023-05-10T19:51:58.971Z,19.64
2023-05-10T19:54:29.561Z,19.50
2023-05-10T19:56:59.324Z,19.37
2023-05-10T19:59:29.554Z,19.43
2023-05-10T20:02:00.760Z,19.46
2023-05-10T20:04:31.891Z,19.33
2023-05-10T20:07:02.877Z,19.13
2023-05-10T20:09:33.160Z,19.16
2023-05-10T20:12:08.275Z,18.88
2023-05-10T20:14:39.676Z,18.81
2023-05-10T20:17:09.857Z,18.79
2023-05-10T20:19:40.041Z,18.75
2023-05-10T20:22:10.790Z,18.60
2023-05-10T20:24:41.273Z,18.38
2023-05-10T20:27:11.476Z,18.07
2023-05-10T20:29:41.745Z,17.83
2023-05-10T20:32:11.497Z,17.61
2023-05-10T20:34:43.200Z,17.38
2023-05-10T20:37:14.510Z,17.17
2023-05-10T20:39:46.643Z,17.00
2023-05-10T20:42:18.102Z,16.80
2023-05-10T20:44:48.047Z,16.63
2023-05-10T20:47:19.872Z,16.48
2023-05-10T20:49:51.899Z,16.36
2023-05-10T20:52:23.426Z,16.21
2023-05-10T20:54:55.280Z,16.15
2023-05-10T20:57:25.959Z,16.04
2023-05-10T20:59:56.523Z,15.94
2023-05-10T21:02:26.548Z,15.83
2023-05-10T21:04:58.087Z,15.76
2023-05-10T21:07:29.916Z,15.70
2023-05-10T21:10:00.729Z,15.64
2023-05-10T21:12:30.524Z,15.56
2023-05-10T21:15:00.921Z,15.47
2023-05-10T21:17:32.088Z,15.40
2023-05-10T21:20:03.478Z,15.35
2023-05-10T21:22:33.648Z,15.27
2023-05-10T21:25:03.407Z,15.22
2023-05-10T21:27:33.829Z,15.16
2023-05-10T21:30:04.541Z,15.10
2023-05-10T21:32:34.976Z,15.02
2023-05-10T21:35:05.931Z,15.00
2023-05-10T21:37:36.970Z,14.95
2023-05-10T21:40:07.716Z,14.91
2023-05-10T21:42:38.727Z,14.78
2023-05-10T21:45:09.658Z,14.79
2023-05-10T21:47:43.045Z,14.79
2023-05-10T21:50:14.535Z,14.77
2023-05-10T21:52:46.223Z,14.68
2023-05-10T21:55:17.312Z,14.61
2023-05-10T21:57:48.596Z,14.57
2023-05-10T22:00:20.540Z,14.51
2023-05-10T22:02:51.272Z,14.56
2023-05-10T22:05:22.997Z,14.52
2023-05-10T22:07:53.966Z,14.47
2023-05-10T22:10:24.494Z,14.48
2023-05-10T22:12:56.158Z,14.48
2023-05-10T22:15:28.761Z,14.44
2023-05-10T22:17:59.183Z,14.38
2023-05-10T22:20:32.695Z,14.42
2023-05-10T22:23:04.446Z,14.45
2023-05-10T22:25:35.890Z,14.50
2023-05-10T22:28:06.848Z,14.51
2023-05-10T22:30:37.401Z,14.52
2023-05-10T22:33:10.519Z,14.52
2023-05-10T22:35:41.461Z,14.52
2023-05-10T22:38:13.051Z,14.54
2023-05-10T22:40:44.472Z,14.56
2023-05-10T22:43:16.036Z,14.56
2023-05-10T22:45:53.962Z,14.56
2023-05-10T22:48:25.276Z,14.58
2023-05-10T22:50:56.232Z,14.60
2023-05-10T22:53:27.831Z,14.63
2023-05-10T22:55:58.637Z,14.58
2023-05-10T22:58:29.434Z,14.56
2023-05-10T23:01:00.886Z,14.47
2023-05-10T23:03:35.298Z,14.33
2023-05-10T23:06:08.750Z,14.23
2023-05-10T23:08:40.029Z,14.10
2023-05-10T23:11:13.372Z,14.09
2023-05-10T23:13:46.210Z,13.96
2023-05-10T23:16:17.905Z,13.92
2023-05-10T23:18:50.091Z,13.86
2023-05-10T23:21:21.977Z,13.82
2023-05-10T23:23:54.612Z,13.68
2023-05-10T23:26:32.292Z,13.71
2023-05-10T23:29:03.990Z,13.72
2023-05-10T23:31:38.866Z,13.69
2023-05-10T23:34:11.072Z,13.65
2023-05-10T23:36:44.755Z,13.62
2023-05-10T23:39:19.615Z,13.61
2023-05-10T23:41:51.363Z,13.54
2023-05-10T23:44:29.840Z,13.41
2023-05-10T23:47:02.623Z,13.42
2023-05-10T23:49:33.514Z,13.37
2023-05-10T23:52:05.078Z,13.34
2023-05-10T23:54:39.987Z,13.31
2023-05-10T23:57:15.028Z,13.31
2023-05-10T23:59:46.250Z,13.24
